createdAt,value
2023-01-15T00:01:59.728Z,89.69
2023-01-15T00:07:05.244Z,89.82
2023-01-15T00:12:10.704Z,90.00
2023-01-15T00:17:17.770Z,90.31
2023-01-15T00:22:23.278Z,90.03
2023-01-15T00:27:40.736Z,89.91
2023-01-15T00:32:46.849Z,89.90
2023-01-15T00:37:53.069Z,89.91
2023-01-15T00:42:58.509Z,89.96
2023-01-15T00:48:04.023Z,89.98
2023-01-15T00:53:09.418Z,89.84
2023-01-15T00:58:14.968Z,89.71
2023-01-15T01:03:20.482Z,89.72
2023-01-15T01:08:25.996Z,89.71
2023-01-15T01:13:31.505Z,89.67
2023-01-15T01:18:36.959Z,89.46
2023-01-15T01:23:42.582Z,89.38
2023-01-15T01:28:54.931Z,89.39
2023-01-15T01:34:01.336Z,89.43
2023-01-15T01:39:07.915Z,89.13
2023-01-15T01:44:35.898Z,89.19
2023-01-15T01:49:43.498Z,89.12
2023-01-15T01:54:50.884Z,88.99
2023-01-15T01:59:58.938Z,88.84
2023-01-15T02:05:05.565Z,88.74
2023-01-15T02:10:17.027Z,88.70
2023-01-15T02:15:25.600Z,88.83
2023-01-15T02:20:36.535Z,88.78
2023-01-15T02:26:06.601Z,88.92
2023-01-15T02:31:24.224Z,89.10
2023-01-15T02:36:32.377Z,88.87
2023-01-15T02:41:41.478Z,88.83
2023-01-15T02:46:48.961Z,88.89
2023-01-15T02:52:06.323Z,88.82
2023-01-15T02:57:13.115Z,88.29
2023-01-15T03:02:24.347Z,88.56
2023-01-15T03:07:38.695Z,88.38
2023-01-15T03:13:06.303Z,88.29
2023-01-15T03:18:18.519Z,87.89
2023-01-15T03:23:27.384Z,87.93
2023-01-15T03:28:36.726Z,87.77
2023-01-15T03:33:43.614Z,88.01
2023-01-15T03:38:51.912Z,87.87
2023-01-15T03:44:16.852Z,87.62
2023-01-15T03:49:34.303Z,87.71
2023-01-15T03:54:56.304Z,88.10
2023-01-15T04:00:04.905Z,88.22
2023-01-15T04:05:12.786Z,88.42
2023-01-15T04:10:18.607Z,88.77
2023-01-15T04:15:25.850Z,88.85
2023-01-15T04:20:31.892Z,89.27
2023-01-15T04:25:38.524Z,89.42
2023-01-15T04:30:44.439Z,89.10
2023-01-15T04:35:49.981Z,89.22
2023-01-15T04:41:13.789Z,88.88
2023-01-15T04:46:24.028Z,88.29
2023-01-15T04:51:29.730Z,88.56
2023-01-15T04:56:41.026Z,88.23
2023-01-15T05:02:01.854Z,88.62
2023-01-15T05:06:53.595Z,87.35
2023-01-15T05:11:59.161Z,87.64
2023-01-15T05:17:04.706Z,87.07
2023-01-15T05:22:10.486Z,86.88
2023-01-15T05:27:16.122Z,86.37
2023-01-15T05:32:21.529Z,86.72
2023-01-15T05:37:27.060Z,86.42
2023-01-15T05:42:32.592Z,86.13
2023-01-15T05:47:38.140Z,85.57
2023-01-15T05:52:45.260Z,85.46
2023-01-15T05:57:50.702Z,85.30
2023-01-15T06:02:56.224Z,85.04
2023-01-15T06:08:01.655Z,84.91
2023-01-15T06:13:07.055Z,84.60
2023-01-15T06:18:13.377Z,84.47
2023-01-15T06:23:20.643Z,84.48
2023-01-15T06:28:26.042Z,84.12
2023-01-15T06:33:31.413Z,84.31
2023-01-15T06:38:36.961Z,84.11
2023-01-15T06:44:00.215Z,83.77
2023-01-15T06:49:05.585Z,83.39
2023-01-15T06:54:11.097Z,83.13
2023-01-15T06:59:16.714Z,83.56
2023-01-15T07:04:22.237Z,83.20
2023-01-15T07:09:27.673Z,82.91
2023-01-15T07:14:33.260Z,82.73
2023-01-15T07:19:38.797Z,82.68
2023-01-15T07:24:44.413Z,82.71
2023-01-15T07:29:51.629Z,82.12
2023-01-15T07:34:57.003Z,82.41
2023-01-15T07:40:02.444Z,82.19
2023-01-15T07:45:27.686Z,82.33
2023-01-15T07:50:33.285Z,83.09
2023-01-15T07:55:38.901Z,82.37
2023-01-15T08:00:44.300Z,82.38
2023-01-15T08:05:49.890Z,82.49
2023-01-15T08:11:13.260Z,84.34
2023-01-15T08:16:18.915Z,82.08
2023-01-15T08:21:24.370Z,81.87
2023-01-15T08:26:29.910Z,81.47
2023-01-15T08:31:35.505Z,81.98
2023-01-15T08:36:40.931Z,81.62
2023-01-15T08:41:46.542Z,81.89
2023-01-15T08:46:53.529Z,81.48
2023-01-15T08:51:59.035Z,81.17
2023-01-15T08:57:04.553Z,81.84
2023-01-15T09:02:15.319Z,81.92
2023-01-15T09:07:20.917Z,80.93
2023-01-15T09:12:27.483Z,81.57
2023-01-15T09:17:33.940Z,83.88
2023-01-15T09:22:39.522Z,80.91
2023-01-15T09:27:44.904Z,80.97
2023-01-15T09:32:50.726Z,80.96
2023-01-15T09:37:56.548Z,80.62
2023-01-15T09:43:28.610Z,80.42
2023-01-15T09:48:46.554Z,80.30
2023-01-15T09:54:00.979Z,80.35
2023-01-15T09:59:10.951Z,80.48
2023-01-15T10:04:19.407Z,80.43
2023-01-15T10:09:32.494Z,80.84
2023-01-15T10:14:50.141Z,80.08
2023-01-15T10:19:57.499Z,80.26
2023-01-15T10:25:05.724Z,80.44
2023-01-15T10:30:25.898Z,80.32
2023-01-15T10:35:54.254Z,79.42
2023-01-15T10:41:19.554Z,79.64
2023-01-15T10:46:30.086Z,79.39
2023-01-15T10:51:44.832Z,79.50
2023-01-15T10:57:14.401Z,79.67
2023-01-15T11:02:22.962Z,79.13
2023-01-15T11:08:06.513Z,78.62
2023-01-15T11:13:14.414Z,78.77
2023-01-15T11:18:48.292Z,78.55
2023-01-15T11:23:56.278Z,78.07
2023-01-15T11:29:04.703Z,78.23
2023-01-15T11:34:22.036Z,77.52
2023-01-15T11:39:31.154Z,77.38
2023-01-15T11:44:54.323Z,76.92
2023-01-15T11:50:17.693Z,77.21
2023-01-15T11:55:25.553Z,75.72
2023-01-15T12:00:34.417Z,75.66
2023-01-15T12:05:41.444Z,74.93
2023-01-15T12:11:21.050Z,75.21
2023-01-15T12:16:32.817Z,74.77
2023-01-15T12:22:05.352Z,74.19
2023-01-15T12:27:19.343Z,74.22
2023-01-15T12:32:33.840Z,74.34
2023-01-15T12:37:48.297Z,73.21
2023-01-15T12:43:13.991Z,72.59
2023-01-15T12:48:34.711Z,72.88
2023-01-15T12:53:52.464Z,72.51
2023-01-15T12:59:07.249Z,71.86
2023-01-15T13:04:31.235Z,71.51
2023-01-15T13:09:45.792Z,70.95
2023-01-15T13:14:51.372Z,70.83
2023-01-15T13:19:59.872Z,69.86
2023-01-15T13:25:37.088Z,69.51
2023-01-15T13:30:57.435Z,69.81
2023-01-15T13:36:14.767Z,69.11
2023-01-15T13:41:41.198Z,68.34
2023-01-15T13:46:49.080Z,68.13
2023-01-15T13:51:56.249Z,68.76
2023-01-15T13:57:13.743Z,67.62
2023-01-15T14:02:27.865Z,67.38
2023-01-15T14:07:36.610Z,67.63
2023-01-15T14:12:54.009Z,66.82
2023-01-15T14:18:11.095Z,66.61
2023-01-15T14:23:25.496Z,66.40
2023-01-15T14:29:02.906Z,65.90
2023-01-15T14:34:27.161Z,65.58
2023-01-15T14:39:41.967Z,65.36
2023-01-15T14:44:48.703Z,65.19
2023-01-15T14:50:03.352Z,65.39
2023-01-15T14:55:12.123Z,65.01
2023-01-15T15:00:21.022Z,64.58
2023-01-15T15:05:26.918Z,64.47
2023-01-15T15:10:41.577Z,64.31
2023-01-15T15:15:56.098Z,64.18
2023-01-15T15:21:19.400Z,64.28
2023-01-15T15:26:33.731Z,63.93
2023-01-15T15:31:42.129Z,64.24
2023-01-15T15:36:48.545Z,64.15
2023-01-15T15:42:14.776Z,64.22
2023-01-15T15:47:44.147Z,63.94
2023-01-15T15:52:53.204Z,64.08
2023-01-15T15:58:01.889Z,63.67
2023-01-15T16:03:09.668Z,63.81
2023-01-15T16:08:21.064Z,64.99
2023-01-15T16:13:38.169Z,66.26
2023-01-15T16:19:01.319Z,66.84
2023-01-15T16:24:09.485Z,66.40
2023-01-15T16:29:20.626Z,65.65
2023-01-15T16:34:32.106Z,64.32
2023-01-15T16:39:40.518Z,63.75
2023-01-15T16:44:55.078Z,63.78
2023-01-15T16:50:26.396Z,63.74
2023-01-15T16:55:43.719Z,63.79
2023-01-15T17:00:53.217Z,64.07
2023-01-15T17:06:05.605Z,64.29
2023-01-15T17:11:20.043Z,64.66
2023-01-15T17:16:25.911Z,64.70
2023-01-15T17:21:31.811Z,64.67
2023-01-15T17:26:37.721Z,64.91
2023-01-15T17:31:44.168Z,65.07
2023-01-15T17:36:49.603Z,65.03
2023-01-15T17:41:55.209Z,64.94
2023-01-15T17:47:00.592Z,65.03
2023-01-15T17:52:08.291Z,64.96
2023-01-15T17:57:33.832Z,65.13
2023-01-15T18:02:58.105Z,65.06
2023-01-15T18:08:06.685Z,64.95
2023-01-15T18:13:12.843Z,64.99
2023-01-15T18:18:18.647Z,64.86
2023-01-15T18:23:25.811Z,64.75
2023-01-15T18:28:34.226Z,65.01
2023-01-15T18:33:39.693Z,65.06
2023-01-15T18:38:47.552Z,65.06
2023-01-15T18:44:10.784Z,65.11
2023-01-15T18:49:16.334Z,65.15
2023-01-15T18:54:21.730Z,65.32
2023-01-15T18:59:27.606Z,65.37
2023-01-15T19:04:33.191Z,65.45
2023-01-15T19:09:39.256Z,65.46
2023-01-15T19:15:02.811Z,65.44
2023-01-15T19:20:11.153Z,65.39
2023-01-15T19:25:17.571Z,65.29
2023-01-15T19:30:23.971Z,65.28
2023-01-15T19:35:29.789Z,65.17
2023-01-15T19:40:36.951Z,65.20
2023-01-15T19:46:03.308Z,66.31
2023-01-15T19:51:08.863Z,64.96
2023-01-15T19:56:14.329Z,65.00
2023-01-15T20:01:19.903Z,64.86
2023-01-15T20:06:25.448Z,64.74
2023-01-15T20:11:32.549Z,64.37
2023-01-15T20:16:38.098Z,64.47
2023-01-15T20:21:43.769Z,64.44
2023-01-15T20:26:49.224Z,64.37
2023-01-15T20:31:54.733Z,64.19
2023-01-15T20:37:02.091Z,64.10
2023-01-15T20:42:25.508Z,64.23
2023-01-15T20:47:49.607Z,64.17
2023-01-15T20:52:58.794Z,64.05
2023-01-15T20:58:05.174Z,63.92
2023-01-15T21:03:12.635Z,64.03
2023-01-15T21:08:19.996Z,63.60
2023-01-15T21:13:25.490Z,64.02
2023-01-15T21:18:32.796Z,64.17
2023-01-15T21:23:38.201Z,64.04
2023-01-15T21:28:44.886Z,63.86
2023-01-15T21:33:51.976Z,63.90
2023-01-15T21:38:58.979Z,63.80
2023-01-15T21:44:22.255Z,63.80
2023-01-15T21:49:28.607Z,63.61
2023-01-15T21:54:35.289Z,63.40
2023-01-15T21:59:41.385Z,63.33
2023-01-15T22:04:47.204Z,63.42
2023-01-15T22:09:52.802Z,63.25
2023-01-15T22:14:58.764Z,63.37
2023-01-15T22:20:06.243Z,63.36
2023-01-15T22:25:13.371Z,63.10
2023-01-15T22:30:18.871Z,63.08
2023-01-15T22:35:24.954Z,63.14
2023-01-15T22:40:30.560Z,63.01
2023-01-15T22:45:36.064Z,63.16
2023-01-15T22:50:41.668Z,62.86
2023-01-15T22:55:48.623Z,62.74
2023-01-15T23:00:59.179Z,62.69
2023-01-15T23:06:07.727Z,62.50
2023-01-15T23:11:15.845Z,62.25
2023-01-15T23:16:22.157Z,62.26
2023-01-15T23:21:28.830Z,62.32
2023-01-15T23:26:35.958Z,62.10
2023-01-15T23:31:41.507Z,62.20
2023-01-15T23:36:47.026Z,62.24
2023-01-15T23:42:10.352Z,62.35
2023-01-15T23:47:15.736Z,62.70
2023-01-15T23:52:21.167Z,63.06
2023-01-15T23:57:26.628Z,63.29
